Time;durP1;ratioP1;P1;durP2;ratioP2;P2;SDS_P1;SDS_P2;PMS_P1;PMS_P2;Temp;Humidity;BMP_temperature;BMP_pressure;BME280_temperature;BME280_humidity;BME280_pressure;Samples;Min_cycle;Max_cycle;Signal;HPM_P1;HPM_P2
2022/10/09 11:30:45;;;;;;;6.10;1.70;;;24.90;99.90;;;;;;4881925;29;20921;-47
2022/10/09 11:36:40;;;;;;;6.77;1.80;;;22.40;99.90;;;;;;4879826;29;21353;-47
2022/10/09 11:42:29;;;;;;;6.47;1.77;;;21.80;99.90;;;;;;4880530;29;20597;-48
2022/10/09 11:51:51;;;;;;;7.07;1.40;;;20.10;99.90;;;;;;4879051;29;20425;-47
2022/10/09 11:58:17;;;;;;;4.60;1.50;;;19.00;99.90;;;;;;4882704;29;20494;-47
2022/10/09 12:04:11;;;;;;;7.40;1.77;;;18.10;99.90;;;;;;4882786;29;20559;-47
2022/10/09 12:10:06;;;;;;;7.93;2.40;;;17.50;99.90;;;;;;4877327;29;20480;-47
2022/10/09 12:15:56;;;;;;;5.60;1.30;;;19.90;99.90;;;;;;4880999;29;20894;-48
2022/10/09 12:18:38;;;;;;;3.73;1.73;;;19.60;99.90;;;;;;4881467;29;20511;-47
2022/10/09 12:21:17;;;;;;;3.53;1.50;;;18.60;99.90;;;;;;4883250;29;20440;-47
2022/10/09 12:23:46;;;;;;;6.10;1.80;;;17.90;99.90;;;;;;4893943;29;20499;-47
2022/10/09 12:26:13;;;;;;;3.90;1.60;;;18.30;99.90;;;;;;4899996;29;20497;-47
2022/10/09 12:28:46;;;;;;;8.63;1.53;;;19.10;99.90;;;;;;4906035;29;21131;-52
2022/10/09 12:31:20;;;;;;;6.33;1.67;;;19.40;99.90;;;;;;4904925;29;20446;-50
2022/10/09 12:33:52;;;;;;;5.37;1.63;;;19.30;99.90;;;;;;4904735;29;20470;-50
2022/10/09 12:36:26;;;;;;;4.70;1.80;;;18.80;99.90;;;;;;4902218;29;20523;-50
2022/10/09 12:38:52;;;;;;;7.43;1.90;;;18.30;99.90;;;;;;4904532;29;20482;-49
2022/10/09 12:41:20;;;;;;;6.30;1.97;;;18.00;99.90;;;;;;4900376;29;20820;-52
2022/10/09 12:43:49;;;;;;;6.90;1.70;;;18.70;99.90;;;;;;4903871;29;20261;-50
2022/10/09 12:46:28;;;;;;;4.97;1.90;;;19.90;99.90;;;;;;4903357;29;21042;-50
2022/10/09 12:48:55;;;;;;;4.40;1.70;;;21.00;99.90;;;;;;4901073;29;20859;-51
2022/10/09 12:51:27;;;;;;;4.50;1.60;;;20.70;99.90;;;;;;4902481;29;20852;-50
2022/10/09 12:53:53;;;;;;;7.53;2.03;;;20.10;99.90;;;;;;4902968;29;20606;-50
2022/10/09 12:56:34;;;;;;;4.30;1.67;;;19.30;99.90;;;;;;4901701;29;20542;-51
2022/10/09 12:59:01;;;;;;;11.97;2.53;;;18.60;99.90;;;;;;4901916;29;20473;-50
2022/10/09 13:01:27;;;;;;;8.07;2.40;;;17.90;99.90;;;;;;4904693;29;20559;-50
2022/10/09 13:03:55;;;;;;;13.10;2.33;;;17.40;99.90;;;;;;4904727;29;20565;-50
2022/10/09 13:06:27;;;;;;;5.70;1.90;;;17.10;99.90;;;;;;4902966;29;20571;-50
2022/10/09 13:09:01;;;;;;;6.10;1.60;;;16.90;99.90;;;;;;4902483;29;20580;-51
2022/10/09 13:11:34;;;;;;;4.73;1.47;;;17.50;99.90;;;;;;4900626;29;20466;-51
2022/10/09 13:14:00;;;;;;;5.57;1.60;;;18.10;99.90;;;;;;4902886;29;20457;-51
2022/10/09 13:16:37;;;;;;;8.87;1.77;;;17.80;99.90;;;;;;4899872;29;20455;-51
2022/10/09 13:19:18;;;;;;;6.40;2.20;;;17.70;99.90;;;;;;4901979;29;20482;-51
2022/10/09 13:21:44;;;;;;;5.03;1.50;;;17.50;99.90;;;;;;4898945;29;20931;-56
2022/10/09 13:24:12;;;;;;;8.97;1.37;;;17.60;99.90;;;;;;4907729;29;20458;-46
2022/10/09 13:26:41;;;;;;;5.60;2.47;;;17.60;99.90;;;;;;4901490;29;20223;-46
2022/10/09 13:29:07;;;;;;;7.43;1.70;;;17.40;99.90;;;;;;4899161;29;20766;-47
2022/10/09 13:31:35;;;;;;;4.90;1.60;;;17.90;99.90;;;;;;4916144;29;20947;-46
2022/10/09 13:34:10;;;;;;;5.97;1.80;;;18.30;99.90;;;;;;4902251;29;20450;-47
2022/10/09 13:36:35;;;;;;;7.63;1.90;;;18.40;99.90;;;;;;4902423;29;20435;-46
2022/10/09 13:39:01;;;;;;;4.43;1.63;;;18.20;99.90;;;;;;4919157;29;20470;-47
2022/10/09 13:41:27;;;;;;;9.80;1.83;;;18.50;99.90;;;;;;4898377;29;20187;-46
2022/10/09 13:43:52;;;;;;;11.90;1.70;;;18.30;99.90;;;;;;4900431;29;20664;-46
2022/10/09 13:46:18;;;;;;;4.23;1.80;;;18.00;99.90;;;;;;4896079;29;20196;-45
2022/10/09 13:48:44;;;;;;;6.10;1.87;;;18.40;99.90;;;;;;4901364;29;20205;-47
2022/10/09 13:51:09;;;;;;;5.17;1.50;;;19.10;99.90;;;;;;4900725;29;21551;-46
2022/10/09 13:53:35;;;;;;;3.20;1.57;;;19.60;99.90;;;;;;4900992;29;20203;-46
2022/10/09 13:56:01;;;;;;;6.70;1.57;;;19.70;99.90;;;;;;4919030;29;20210;-46
2022/10/09 13:58:27;;;;;;;6.20;1.60;;;19.30;99.90;;;;;;4909582;29;20215;-46
2022/10/09 14:00:52;;;;;;;4.70;1.57;;;19.30;99.90;;;;;;4913250;29;20183;-46
2022/10/09 14:03:18;;;;;;;4.53;1.63;;;19.80;99.90;;;;;;4913433;29;20190;-46
2022/10/09 14:05:44;;;;;;;5.83;1.67;;;20.20;99.90;;;;;;4912656;29;20230;-45
2022/10/09 14:08:10;;;;;;;4.57;1.60;;;20.50;99.90;;;;;;4913194;29;20203;-45
2022/10/09 14:10:41;;;;;;;3.97;1.53;;;21.00;99.90;;;;;;4908372;29;20214;-45
2022/10/09 14:13:06;;;;;;;6.20;1.70;;;21.40;99.90;;;;;;4911080;29;21168;-45
2022/10/09 14:15:32;;;;;;;3.60;1.50;;;21.60;99.90;;;;;;4907880;29;20481;-45
2022/10/09 14:17:58;;;;;;;7.73;2.17;;;21.30;99.90;;;;;;4911184;29;20772;-46
2022/10/09 14:20:25;;;;;;;5.93;1.90;;;20.50;99.90;;;;;;4908851;29;20239;-50
2022/10/09 14:22:51;;;;;;;4.17;1.70;;;20.20;99.90;;;;;;4912336;29;20207;-49
2022/10/09 14:25:17;;;;;;;10.03;2.07;;;20.00;99.90;;;;;;4907188;29;20522;-51
2022/10/09 14:27:42;;;;;;;6.77;1.40;;;19.80;99.90;;;;;;4910503;29;20275;-48
2022/10/09 14:30:09;;;;;;;6.00;2.20;;;19.80;99.90;;;;;;4909193;29;20837;-50
2022/10/09 14:32:34;;;;;;;7.03;1.87;;;19.70;99.90;;;;;;4910077;29;20194;-49
2022/10/09 14:35:00;;;;;;;2.17;1.47;;;19.30;99.90;;;;;;4909325;29;20470;-50
2022/10/09 14:37:26;;;;;;;3.00;1.57;;;18.90;99.90;;;;;;4909555;29;20288;-49
2022/10/09 14:39:52;;;;;;;4.93;1.87;;;18.40;99.90;;;;;;4909902;29;20592;-50
2022/10/09 14:42:17;;;;;;;4.57;1.50;;;17.90;99.90;;;;;;4906398;29;20448;-49
2022/10/09 14:44:43;;;;;;;6.77;2.10;;;17.50;99.90;;;;;;4910138;29;20202;-50
2022/10/09 14:47:08;;;;;;;5.70;1.90;;;17.00;99.90;;;;;;4913813;29;20263;-55
2022/10/09 14:49:34;;;;;;;7.50;1.70;;;16.60;99.90;;;;;;4914529;29;20321;-49
2022/10/09 14:51:59;;;;;;;5.03;1.70;;;16.30;99.90;;;;;;4907476;29;20688;-50
2022/10/09 14:54:26;;;;;;;4.97;2.03;;;16.10;99.90;;;;;;4910430;29;20242;-50
2022/10/09 14:56:51;;;;;;;3.93;1.60;;;15.90;99.90;;;;;;4916605;29;20227;-49
2022/10/09 14:59:17;;;;;;;3.93;1.70;;;15.70;99.90;;;;;;4913080;29;20479;-50
2022/10/09 15:01:43;;;;;;;6.60;2.00;;;15.50;99.90;;;;;;4928544;29;20192;-49
2022/10/09 15:04:09;;;;;;;5.93;1.83;;;15.40;99.90;;;;;;4914460;29;20197;-50
2022/10/09 15:06:35;;;;;;;6.00;1.50;;;15.20;99.90;;;;;;4929021;29;20627;-49
2022/10/09 15:09:01;;;;;;;7.40;1.93;;;15.00;99.90;;;;;;4916233;29;20287;-49
2022/10/09 15:11:28;;;;;;;6.43;1.87;;;14.90;99.90;;;;;;4928493;29;20517;-49
2022/10/09 15:13:56;;;;;;;5.70;1.50;;;14.80;99.90;;;;;;4916607;29;20911;-46
2022/10/09 15:16:22;;;;;;;12.63;2.00;;;14.70;99.90;;;;;;4912645;29;20948;-45
2022/10/09 15:18:49;;;;;;;5.57;1.50;;;14.60;99.90;;;;;;4913816;29;20499;-46
2022/10/09 15:21:21;;;;;;;5.73;2.00;;;14.60;99.90;;;;;;4910555;29;20443;-45
2022/10/09 15:23:48;;;;;;;4.23;1.83;;;14.50;99.90;;;;;;4912216;29;20554;-46
2022/10/09 15:26:14;;;;;;;11.50;2.17;;;14.50;99.90;;;;;;4912505;29;20486;-46
2022/10/09 15:28:45;;;;;;;6.50;1.97;;;14.40;99.90;;;;;;4912648;29;20462;-46
2022/10/09 15:31:26;;;;;;;6.20;2.27;;;14.30;99.90;;;;;;4915612;29;20471;-45
2022/10/09 15:33:53;;;;;;;5.00;1.30;;;14.30;99.90;;;;;;4911880;29;20445;-45
2022/10/09 15:36:20;;;;;;;6.97;2.00;;;14.20;99.90;;;;;;4912672;29;20454;-46
2022/10/09 15:38:48;;;;;;;6.00;2.00;;;14.10;99.90;;;;;;4915084;29;20510;-45
2022/10/09 15:41:23;;;;;;;5.27;2.10;;;14.00;99.90;;;;;;4910475;29;20435;-45
2022/10/09 15:43:50;;;;;;;7.03;2.07;;;14.00;99.90;;;;;;4910174;29;20463;-45
2022/10/09 15:46:16;;;;;;;7.70;2.17;;;14.00;99.90;;;;;;4914851;29;20808;-45
2022/10/09 15:48:41;;;;;;;2.53;1.57;;;13.90;99.90;;;;;;4912683;29;20454;-45
2022/10/09 15:51:12;;;;;;;4.83;2.30;;;13.90;99.90;;;;;;4911670;29;20194;-45
2022/10/09 15:53:39;;;;;;;8.13;2.47;;;13.80;1.00;;;;;;4928142;29;20289;-45
2022/10/09 15:56:10;;;;;;;3.50;2.10;;;13.70;99.90;;;;;;4911919;29;20439;-45
2022/10/09 15:58:39;;;;;;;4.37;1.90;;;13.70;99.90;;;;;;4910767;29;20965;-45
2022/10/09 16:01:08;;;;;;;5.90;2.07;;;13.60;99.90;;;;;;4912000;29;20445;-45
2022/10/09 16:03:34;;;;;;;4.67;2.20;;;13.50;99.90;;;;;;4913235;29;20443;-45
2022/10/09 16:06:01;;;;;;;3.27;1.90;;;13.40;99.90;;;;;;4911463;29;20454;-45
2022/10/09 16:08:27;;;;;;;6.23;2.60;;;13.30;99.90;;;;;;4909209;29;20199;-45
2022/10/09 16:10:54;;;;;;;3.37;2.07;;;13.20;99.90;;;;;;4914243;29;20474;-45
2022/10/09 16:13:21;;;;;;;5.17;2.57;;;13.10;99.90;;;;;;4910391;29;20934;-45
2022/10/09 16:15:47;;;;;;;12.13;3.03;;;13.00;99.90;;;;;;4912266;29;20886;-45
2022/10/09 16:18:18;;;;;;;11.07;2.63;;;13.00;99.90;;;;;;4909757;29;20985;-45
2022/10/09 16:20:44;;;;;;;5.13;2.10;;;12.90;99.90;;;;;;4912386;29;20450;-45
2022/10/09 16:23:10;;;;;;;5.53;2.43;;;12.70;1.00;;;;;;4925611;29;20439;-46
2022/10/09 16:25:37;;;;;;;6.23;3.03;;;12.60;1.00;;;;;;4899014;29;20283;-45
2022/10/09 16:28:04;;;;;;;14.83;2.90;;;12.60;1.00;;;;;;4896074;29;20455;-45
2022/10/09 16:30:31;;;;;;;12.37;3.83;;;12.50;1.00;;;;;;4905524;29;20530;-45
2022/10/09 16:32:56;;;;;;;8.67;3.50;;;12.40;1.00;;;;;;4910516;29;20439;-45
2022/10/09 16:35:22;;;;;;;9.43;3.33;;;12.30;1.00;;;;;;4911907;29;20972;-45
2022/10/09 16:37:51;;;;;;;10.80;4.33;;;12.20;1.00;;;;;;4912046;29;20293;-45
2022/10/09 16:40:16;;;;;;;11.73;5.03;;;12.10;1.00;;;;;;4911495;29;20194;-45
2022/10/09 16:42:42;;;;;;;11.00;4.83;;;12.10;1.00;;;;;;4896980;29;20974;-45
2022/10/09 16:45:08;;;;;;;8.03;5.17;;;11.90;1.00;;;;;;4894998;29;20190;-45
2022/10/09 16:47:34;;;;;;;12.53;4.87;;;11.90;1.00;;;;;;4896293;29;20203;-45
2022/10/09 16:49:59;;;;;;;14.07;4.90;;;11.90;1.00;;;;;;4901517;29;20457;-46
2022/10/09 16:52:25;;;;;;;12.27;5.27;;;11.80;1.00;;;;;;4895165;29;20687;-45
2022/10/09 16:54:51;;;;;;;15.97;5.90;;;11.70;1.00;;;;;;4894703;29;20281;-45
2022/10/09 16:57:17;;;;;;;8.87;4.80;;;11.60;1.00;;;;;;4896259;29;20191;-45
2022/10/09 16:59:44;;;;;;;12.90;6.40;;;11.60;1.00;;;;;;4897733;29;20199;-45
2022/10/09 17:02:11;;;;;;;18.50;7.90;;;11.50;1.00;;;;;;4895878;29;20194;-47
2022/10/09 17:04:36;;;;;;;20.20;9.93;;;11.50;1.00;;;;;;4894866;29;20454;-46
2022/10/09 17:07:02;;;;;;;14.10;6.60;;;11.40;1.00;;;;;;4906906;29;20447;-45
2022/10/09 17:09:29;;;;;;;12.27;6.37;;;11.40;1.00;;;;;;4899586;29;20740;-45
2022/10/09 17:11:55;;;;;;;15.37;7.67;;;11.30;1.00;;;;;;4904847;29;20459;-45
2022/10/09 17:14:21;;;;;;;13.67;6.50;;;11.20;1.00;;;;;;4894520;29;20450;-45
2022/10/09 17:16:46;;;;;;;14.40;6.23;;;11.20;1.00;;;;;;4893725;29;21399;-45
2022/10/09 17:19:14;;;;;;;13.43;6.33;;;11.10;1.00;;;;;;4894124;29;20250;-45
2022/10/09 17:21:40;;;;;;;12.03;6.60;;;11.10;1.00;;;;;;4897547;29;20264;-45
2022/10/09 17:24:06;;;;;;;13.97;7.60;;;11.00;1.00;;;;;;4910679;29;20458;-45
2022/10/09 17:26:32;;;;;;;11.10;7.60;;;10.90;1.00;;;;;;4909936;29;20450;-45
2022/10/09 17:28:58;;;;;;;9.30;7.10;;;10.80;1.00;;;;;;4905200;29;20445;-45
2022/10/09 17:31:25;;;;;;;18.33;7.20;;;10.70;1.00;;;;;;4908625;29;20439;-45
2022/10/09 17:33:57;;;;;;;12.17;5.93;;;10.70;1.00;;;;;;4901074;29;20518;-44
2022/10/09 17:36:25;;;;;;;10.63;5.60;;;10.60;1.00;;;;;;4910296;29;20847;-45
2022/10/09 17:38:51;;;;;;;12.30;4.90;;;10.50;1.00;;;;;;4908372;29;20502;-45
2022/10/09 17:41:20;;;;;;;14.37;5.13;;;10.50;7.50;;;;;;4906203;29;20963;-50
2022/10/09 17:43:45;;;;;;;11.63;5.37;;;10.50;1.00;;;;;;4907409;29;20439;-44
2022/10/09 17:46:13;;;;;;;10.67;4.60;;;10.40;8.70;;;;;;4905628;29;20454;-45
2022/10/09 17:48:43;;;;;;;8.73;5.20;;;10.40;57.20;;;;;;4902364;29;20616;-44
2022/10/09 17:51:17;;;;;;;16.37;5.43;;;10.30;99.90;;;;;;4904636;29;21030;-45
2022/10/09 17:53:44;;;;;;;18.30;5.07;;;10.30;99.90;;;;;;4903305;29;20817;-45
2022/10/09 17:56:10;;;;;;;9.10;5.00;;;10.20;99.90;;;;;;4902011;29;20498;-44
2022/10/09 17:58:36;;;;;;;11.80;4.90;;;10.20;99.90;;;;;;4903664;29;21001;-44
2022/10/09 18:01:09;;;;;;;12.47;4.93;;;10.10;99.90;;;;;;4912932;29;20455;-45
2022/10/09 18:03:36;;;;;;;12.70;4.83;;;10.10;99.90;;;;;;4909410;29;20457;-45
2022/10/09 18:06:06;;;;;;;12.17;4.60;;;10.10;99.90;;;;;;4903693;29;21255;-45
2022/10/09 18:08:33;;;;;;;8.93;4.30;;;10.00;99.90;;;;;;4916866;29;20967;-46
2022/10/09 18:11:06;;;;;;;11.13;4.90;;;10.00;99.90;;;;;;4906598;29;20542;-45
2022/10/09 18:13:32;;;;;;;11.80;4.73;;;10.00;99.90;;;;;;4905076;29;20436;-45
2022/10/09 18:15:58;;;;;;;9.70;4.97;;;9.90;99.90;;;;;;4904382;29;20445;-45
2022/10/09 18:18:24;;;;;;;10.30;4.97;;;9.90;99.90;;;;;;4919539;29;20479;-44
2022/10/09 18:20:49;;;;;;;8.30;4.90;;;9.90;1.00;;;;;;4907929;29;20183;-45
2022/10/09 18:23:15;;;;;;;9.60;4.50;;;9.90;1.00;;;;;;4912305;29;20445;-45
2022/10/09 18:25:42;;;;;;;6.43;3.90;;;9.90;1.00;;;;;;4925527;29;20262;-45
2022/10/09 18:28:09;;;;;;;5.73;3.73;;;9.90;1.00;;;;;;4915413;29;20668;-45
2022/10/09 18:30:40;;;;;;;10.77;4.00;;;9.90;1.00;;;;;;4928008;29;20459;-45
2022/10/09 18:33:06;;;;;;;8.30;4.60;;;9.90;1.00;;;;;;4909088;29;20459;-45
2022/10/09 18:35:34;;;;;;;7.03;4.30;;;9.90;1.00;;;;;;4913397;29;20446;-50
2022/10/09 18:38:00;;;;;;;7.90;4.13;;;9.90;1.00;;;;;;4912510;29;20315;-44
2022/10/09 18:40:25;;;;;;;13.47;4.43;;;9.90;1.00;;;;;;4912189;29;20526;-45
2022/10/09 18:42:51;;;;;;;7.47;3.90;;;9.90;1.00;;;;;;4915048;29;20258;-45
2022/10/09 18:45:17;;;;;;;10.07;3.70;;;9.90;1.00;;;;;;4913913;29;20262;-45
2022/10/09 18:47:43;;;;;;;9.33;3.80;;;10.00;1.00;;;;;;4909922;29;20191;-46
2022/10/09 18:50:11;;;;;;;6.60;3.67;;;10.00;1.00;;;;;;4915608;29;20204;-45
2022/10/09 18:52:40;;;;;;;8.37;3.90;;;10.10;1.00;;;;;;4915699;29;20534;-45
2022/10/09 18:55:09;;;;;;;7.00;3.30;;;10.10;99.90;;;;;;4913977;29;20443;-45
2022/10/09 18:57:36;;;;;;;8.83;4.77;;;10.10;99.90;;;;;;4913972;29;20781;-45
2022/10/09 19:00:03;;;;;;;12.00;3.80;;;10.10;99.90;;;;;;4913230;29;20987;-45
2022/10/09 19:02:29;;;;;;;8.47;3.80;;;10.10;99.90;;;;;;4915477;29;20467;-56
2022/10/09 19:04:55;;;;;;;6.60;3.60;;;10.10;99.90;;;;;;4912949;29;20972;-46
2022/10/09 19:07:20;;;;;;;6.27;3.50;;;10.10;99.90;;;;;;4911304;29;20191;-45
2022/10/09 19:09:49;;;;;;;17.00;3.73;;;10.10;99.90;;;;;;4917129;29;20470;-45
2022/10/09 19:12:18;;;;;;;5.30;2.93;;;10.10;99.90;;;;;;4921333;29;20198;-45
2022/10/09 19:14:45;;;;;;;10.07;3.60;;;10.10;99.90;;;;;;4913031;29;20486;-46
2022/10/09 19:17:11;;;;;;;10.23;3.93;;;10.10;99.90;;;;;;4913995;29;20817;-45
2022/10/09 19:19:37;;;;;;;11.40;4.23;;;10.00;99.90;;;;;;4915175;29;20956;-46
2022/10/09 19:22:04;;;;;;;8.00;3.80;;;10.10;99.90;;;;;;4913287;29;20439;-45
2022/10/09 19:24:30;;;;;;;7.20;4.07;;;10.00;99.90;;;;;;4911977;29;20227;-45
2022/10/09 19:26:57;;;;;;;10.70;4.40;;;10.00;99.90;;;;;;4918223;29;20443;-45
2022/10/09 19:29:23;;;;;;;12.80;3.87;;;10.00;99.90;;;;;;4918177;29;21088;-45
2022/10/09 19:31:48;;;;;;;7.43;3.60;;;9.90;99.90;;;;;;4910475;29;20454;-46
2022/10/09 19:34:14;;;;;;;5.77;3.07;;;9.90;99.90;;;;;;4913055;29;20439;-46
2022/10/09 19:36:41;;;;;;;5.97;3.43;;;9.90;99.90;;;;;;4913089;29;20191;-45
2022/10/09 19:39:08;;;;;;;6.40;3.50;;;9.90;99.90;;;;;;4913030;29;20247;-46
2022/10/09 19:41:33;;;;;;;10.17;4.10;;;9.90;99.90;;;;;;4911893;29;20458;-45
2022/10/09 19:43:59;;;;;;;9.90;3.33;;;9.90;1.00;;;;;;4913243;29;20443;-45
2022/10/09 19:46:26;;;;;;;11.00;3.77;;;9.90;1.00;;;;;;4909485;29;20812;-45
2022/10/09 19:48:51;;;;;;;18.10;3.70;;;9.80;99.90;;;;;;4913138;29;20194;-45
2022/10/09 19:51:23;;;;;;;10.00;3.20;;;9.80;99.90;;;;;;4912163;29;20445;-45
2022/10/09 19:53:50;;;;;;;6.90;3.40;;;9.80;99.90;;;;;;4907443;29;20362;-45
2022/10/09 19:56:20;;;;;;;6.93;3.10;;;9.80;1.00;;;;;;4913652;29;20452;-45
2022/10/09 19:58:47;;;;;;;10.17;3.73;;;9.90;1.00;;;;;;4911729;29;20479;-45
2022/10/09 20:01:16;;;;;;;8.97;3.57;;;9.90;1.00;;;;;;4912195;29;20455;-46
2022/10/09 20:03:42;;;;;;;9.23;3.53;;;9.90;99.90;;;;;;4913839;29;20443;-45
2022/10/09 20:06:08;;;;;;;14.00;3.20;;;10.00;99.90;;;;;;4913834;29;20563;-45
2022/10/09 20:08:38;;;;;;;8.77;2.97;;;10.00;99.90;;;;;;4912093;29;20447;-45
2022/10/09 20:11:05;;;;;;;9.00;3.43;;;10.00;99.90;;;;;;4912342;29;20453;-45
2022/10/09 20:13:33;;;;;;;8.23;2.90;;;10.00;99.90;;;;;;4905388;29;20530;-45
2022/10/09 20:16:00;;;;;;;11.90;3.43;;;10.10;99.90;;;;;;4914495;29;20469;-45
2022/10/09 20:18:26;;;;;;;5.13;2.73;;;10.00;99.90;;;;;;4908753;29;20510;-45
2022/10/09 20:20:52;;;;;;;7.83;3.03;;;10.10;99.90;;;;;;4913591;29;20455;-46
2022/10/09 20:23:18;;;;;;;9.20;3.60;;;10.10;99.90;;;;;;4912827;29;20461;-45
2022/10/09 20:25:44;;;;;;;6.57;3.97;;;10.10;99.90;;;;;;4913632;29;20480;-45
2022/10/09 20:28:09;;;;;;;8.93;3.47;;;10.10;99.90;;;;;;4912315;29;20191;-45
2022/10/09 20:30:35;;;;;;;7.57;3.50;;;10.10;99.90;;;;;;4912074;29;20463;-45
2022/10/09 20:33:01;;;;;;;9.90;3.40;;;10.10;99.90;;;;;;4910652;29;20202;-45
2022/10/09 20:35:26;;;;;;;6.10;3.17;;;10.10;99.90;;;;;;4920965;29;20187;-46
2022/10/09 20:37:52;;;;;;;9.53;3.10;;;10.10;99.90;;;;;;4907423;29;20218;-45
2022/10/09 20:40:17;;;;;;;13.23;3.83;;;10.00;99.90;;;;;;4910222;29;20191;-46
2022/10/09 20:42:43;;;;;;;10.53;3.20;;;10.00;99.90;;;;;;4912030;29;20191;-46
2022/10/09 20:45:09;;;;;;;9.70;3.73;;;10.00;99.90;;;;;;4910575;29;20179;-46
2022/10/09 20:47:34;;;;;;;15.93;7.37;;;10.00;99.90;;;;;;4906497;29;20201;-45
2022/10/09 20:50:00;;;;;;;117.30;59.93;;;10.00;99.90;;;;;;4905159;29;20879;-45
2022/10/09 20:52:26;;;;;;;6.80;4.30;;;10.00;99.90;;;;;;4912620;29;20187;-45
2022/10/09 20:54:51;;;;;;;5.23;2.80;;;10.00;99.90;;;;;;4907586;29;20443;-49
2022/10/09 20:57:17;;;;;;;5.10;3.27;;;10.00;99.90;;;;;;4910063;29;20261;-49
2022/10/09 20:59:43;;;;;;;7.40;3.40;;;10.00;99.90;;;;;;4909807;29;20210;-50
2022/10/09 21:02:13;;;;;;;15.67;3.90;;;9.90;99.90;;;;;;4913108;29;20459;-50
2022/10/09 21:04:38;;;;;;;5.53;2.90;;;9.90;99.90;;;;;;4912956;29;20194;-49
2022/10/09 21:07:04;;;;;;;9.53;3.50;;;9.80;99.90;;;;;;4915095;29;20803;-49
2022/10/09 21:09:29;;;;;;;9.40;3.90;;;9.70;99.90;;;;;;4908787;29;20191;-49
2022/10/09 21:11:55;;;;;;;7.23;3.33;;;9.70;99.90;;;;;;4906746;29;20563;-49
2022/10/09 21:14:21;;;;;;;8.53;3.50;;;9.70;99.90;;;;;;4915462;29;20203;-49
2022/10/09 21:16:46;;;;;;;7.40;3.50;;;9.70;99.90;;;;;;4900095;29;20828;-49
2022/10/09 21:19:12;;;;;;;5.73;3.00;;;9.70;99.90;;;;;;4917909;29;20214;-49
2022/10/09 21:21:37;;;;;;;11.00;3.80;;;9.60;99.90;;;;;;4914655;29;20202;-49
2022/10/09 21:24:03;;;;;;;6.80;3.27;;;9.60;99.90;;;;;;4918189;29;20238;-48
2022/10/09 21:26:34;;;;;;;13.07;4.50;;;9.60;99.90;;;;;;4915551;29;20209;-50
2022/10/09 21:28:59;;;;;;;7.70;3.30;;;9.60;99.90;;;;;;4912997;29;20555;-50
2022/10/09 21:31:27;;;;;;;10.57;3.27;;;9.60;99.90;;;;;;4909809;29;20459;-49
2022/10/09 21:33:54;;;;;;;5.93;2.80;;;9.60;99.90;;;;;;4914328;29;20362;-49
2022/10/09 21:36:35;;;;;;;9.00;2.97;;;9.60;99.90;;;;;;4917035;29;20447;-49
2022/10/09 21:39:01;;;;;;;12.30;3.60;;;9.70;99.90;;;;;;4910085;29;20490;-49
2022/10/09 21:41:27;;;;;;;10.83;3.67;;;9.70;99.90;;;;;;4917268;29;21127;-49
2022/10/09 21:43:53;;;;;;;8.20;3.00;;;9.70;99.90;;;;;;4908445;29;20450;-49
2022/10/09 21:46:18;;;;;;;9.20;2.90;;;9.70;99.90;;;;;;4928456;29;20651;-49
2022/10/09 21:48:44;;;;;;;7.33;3.20;;;9.60;99.90;;;;;;4920621;29;20285;-49
2022/10/09 21:51:09;;;;;;;5.00;2.77;;;9.60;99.90;;;;;;4913482;29;20206;-49
2022/10/09 21:53:35;;;;;;;14.80;3.20;;;9.50;99.90;;;;;;4915465;29;20537;-50
2022/10/09 21:56:05;;;;;;;5.57;3.07;;;9.40;99.90;;;;;;4915310;29;20564;-50
2022/10/09 21:58:30;;;;;;;7.97;3.10;;;9.30;99.90;;;;;;4918349;29;20666;-50
2022/10/09 22:00:58;;;;;;;10.80;3.67;;;9.20;99.90;;;;;;4919848;29;20463;-49
2022/10/09 22:03:29;;;;;;;7.07;2.90;;;9.20;99.90;;;;;;4917670;29;20191;-50
2022/10/09 22:05:54;;;;;;;9.40;3.80;;;9.20;99.90;;;;;;4918969;29;20447;-50
2022/10/09 22:08:21;;;;;;;8.10;2.93;;;9.20;99.90;;;;;;4924110;29;20462;-49
2022/10/09 22:10:48;;;;;;;6.47;3.43;;;9.10;99.90;;;;;;4918564;29;20202;-50
2022/10/09 22:13:14;;;;;;;9.83;3.80;;;9.00;99.90;;;;;;4916760;29;20451;-49
2022/10/09 22:15:41;;;;;;;12.57;3.60;;;9.00;99.90;;;;;;4916334;29;20949;-50
2022/10/09 22:18:07;;;;;;;9.10;3.87;;;8.90;99.90;;;;;;4923762;29;21099;-50
2022/10/09 22:20:33;;;;;;;7.23;3.17;;;8.90;1.00;;;;;;4916628;29;20534;-49
2022/10/09 22:22:59;;;;;;;10.73;3.80;;;8.90;1.00;;;;;;4933390;29;20713;-50
2022/10/09 22:25:25;;;;;;;8.77;3.50;;;8.80;1.00;;;;;;4917720;29;20728;-49
2022/10/09 22:27:50;;;;;;;9.37;3.50;;;8.70;1.00;;;;;;4919198;29;20447;-50
2022/10/09 22:30:16;;;;;;;8.30;4.07;;;8.70;1.00;;;;;;4927333;29;20203;-50
2022/10/09 22:32:41;;;;;;;13.63;4.43;;;8.60;1.00;;;;;;4920537;29;20206;-50
2022/10/09 22:35:07;;;;;;;8.43;3.60;;;8.60;1.00;;;;;;4918121;29;20569;-50
2022/10/09 22:37:33;;;;;;;8.70;3.70;;;8.60;1.00;;;;;;4917291;29;20294;-50
2022/10/09 22:39:58;;;;;;;10.23;3.60;;;8.50;91.30;;;;;;4915857;29;20209;-49
2022/10/09 22:42:24;;;;;;;7.47;3.73;;;8.50;99.90;;;;;;4917823;29;20237;-50
2022/10/09 22:44:49;;;;;;;9.20;3.77;;;8.50;99.90;;;;;;4913822;29;20199;-50
2022/10/09 22:47:15;;;;;;;8.53;3.63;;;8.60;99.90;;;;;;4920730;29;20261;-50
2022/10/09 22:49:40;;;;;;;4.70;3.50;;;8.60;99.90;;;;;;4917912;29;20550;-49
2022/10/09 22:52:06;;;;;;;6.03;3.40;;;8.50;99.90;;;;;;4918452;29;20267;-50
2022/10/09 22:54:32;;;;;;;6.80;3.47;;;8.50;99.90;;;;;;4917248;29;20194;-50
2022/10/09 22:56:57;;;;;;;9.70;3.60;;;8.50;99.90;;;;;;4920970;29;20277;-49
2022/10/09 22:59:23;;;;;;;6.30;3.77;;;8.50;99.90;;;;;;4913329;29;20353;-50
2022/10/09 23:01:52;;;;;;;9.30;4.77;;;8.60;99.90;;;;;;4916917;29;20191;-49
2022/10/09 23:04:19;;;;;;;6.53;3.33;;;8.60;99.90;;;;;;4915166;29;20207;-49
2022/10/09 23:06:47;;;;;;;6.63;3.57;;;8.60;99.90;;;;;;4917116;29;20884;-49
2022/10/09 23:09:14;;;;;;;7.03;3.50;;;8.60;99.90;;;;;;4916225;29;20450;-50
2022/10/09 23:11:40;;;;;;;8.83;3.60;;;8.50;99.90;;;;;;4914193;29;20538;-51
2022/10/09 23:14:06;;;;;;;9.77;3.60;;;8.50;99.90;;;;;;4916333;29;20475;-51
2022/10/09 23:16:32;;;;;;;5.50;3.23;;;8.50;99.90;;;;;;4918673;29;20996;-49
2022/10/09 23:19:00;;;;;;;6.33;3.17;;;8.50;99.90;;;;;;4915862;29;20482;-50
2022/10/09 23:21:25;;;;;;;7.33;3.60;;;8.50;99.90;;;;;;4917076;29;20564;-50
2022/10/09 23:23:51;;;;;;;9.97;3.43;;;8.40;99.90;;;;;;4915949;29;20447;-49
2022/10/09 23:26:23;;;;;;;9.03;3.70;;;8.50;99.90;;;;;;4917290;29;20728;-50
2022/10/09 23:28:51;;;;;;;8.70;3.50;;;8.50;99.90;;;;;;4918893;29;20198;-49
2022/10/09 23:31:16;;;;;;;5.73;3.80;;;8.40;99.90;;;;;;4915746;29;20447;-50
2022/10/09 23:33:43;;;;;;;5.90;2.93;;;8.40;99.90;;;;;;4915423;29;21100;-49
2022/10/09 23:36:12;;;;;;;8.77;3.37;;;8.30;99.90;;;;;;4914164;29;20195;-49
2022/10/09 23:38:38;;;;;;;14.50;3.70;;;8.30;99.90;;;;;;4915328;29;20475;-50
2022/10/09 23:41:06;;;;;;;5.03;3.20;;;8.30;99.90;;;;;;4915533;29;20839;-49
2022/10/09 23:43:33;;;;;;;10.23;3.27;;;8.30;99.90;;;;;;4915370;29;20514;-50
2022/10/09 23:46:00;;;;;;;9.20;3.40;;;8.30;99.90;;;;;;4919921;29;20447;-50
2022/10/09 23:48:27;;;;;;;6.50;3.13;;;8.30;99.90;;;;;;4916334;29;20458;-50
2022/10/09 23:50:54;;;;;;;14.43;4.40;;;8.30;99.90;;;;;;4917852;29;20688;-50
2022/10/09 23:53:20;;;;;;;6.13;3.23;;;8.20;99.90;;;;;;4904462;29;20515;-50
2022/10/09 23:55:46;;;;;;;6.27;3.27;;;8.30;1.00;;;;;;4913944;29;20780;-49
2022/10/09 23:58:12;;;;;;;5.93;3.60;;;8.30;1.00;;;;;;4915793;29;20478;-50
